地図

経路データ

SID SEASON NUMBER BASIN SUBBASIN NAME ISO_TIME NATURE LAT LON WMO_WIND WMO_PRES WMO_AGENCY TRACK_TYPE DIST2LAND LANDFALL IFLAG USA_AGENCY USA_ATCF_ID USA_LAT USA_LON USA_RECORD USA_STATUS USA_WIND USA_PRES USA_SSHS USA_R34_NE USA_R34_SE USA_R34_SW USA_R34_NW USA_R50_NE USA_R50_SE USA_R50_SW USA_R50_NW USA_R64_NE USA_R64_SE USA_R64_SW USA_R64_NW USA_POCI USA_ROCI USA_RMW USA_EYE TOKYO_LAT TOKYO_LON TOKYO_GRADE TOKYO_WIND TOKYO_PRES TOKYO_R50_DIR TOKYO_R50_LONG TOKYO_R50_SHORT TOKYO_R30_DIR TOKYO_R30_LONG TOKYO_R30_SHORT TOKYO_LAND CMA_LAT CMA_LON CMA_CAT CMA_WIND CMA_PRES HKO_LAT HKO_LON HKO_CAT HKO_WIND HKO_PRES NEWDELHI_LAT NEWDELHI_LON NEWDELHI_GRADE NEWDELHI_WIND NEWDELHI_PRES NEWDELHI_CI NEWDELHI_DP NEWDELHI_POCI REUNION_LAT REUNION_LON REUNION_TYPE REUNION_WIND REUNION_PRES REUNION_TNUM REUNION_CI REUNION_RMW REUNION_R34_NE REUNION_R34_SE REUNION_R34_SW REUNION_R34_NW REUNION_R50_NE REUNION_R50_SE REUNION_R50_SW REUNION_R50_NW REUNION_R64_NE REUNION_R64_SE REUNION_R64_SW REUNION_R64_NW BOM_LAT BOM_LON BOM_TYPE BOM_WIND BOM_PRES BOM_TNUM BOM_CI BOM_RMW BOM_R34_NE BOM_R34_SE BOM_R34_SW BOM_R34_NW BOM_R50_NE BOM_R50_SE BOM_R50_SW BOM_R50_NW BOM_R64_NE BOM_R64_SE BOM_R64_SW BOM_R64_NW BOM_ROCI BOM_POCI BOM_EYE BOM_POS_METHOD BOM_PRES_METHOD NADI_LAT NADI_LON NADI_CAT NADI_WIND NADI_PRES WELLINGTON_LAT WELLINGTON_LON WELLINGTON_WIND WELLINGTON_PRES DS824_LAT DS824_LON DS824_STAGE DS824_WIND DS824_PRES TD9636_LAT TD9636_LON TD9636_STAGE TD9636_WIND TD9636_PRES TD9635_LAT TD9635_LON TD9635_WIND TD9635_PRES TD9635_ROCI NEUMANN_LAT NEUMANN_LON NEUMANN_CLASS NEUMANN_WIND NEUMANN_PRES MLC_LAT MLC_LON MLC_CLASS MLC_WIND MLC_PRES USA_GUST BOM_GUST BOM_GUST_PER REUNION_GUST REUNION_GUST_PER USA_SEAHGT USA_SEARAD_NE USA_SEARAD_SE USA_SEARAD_SW USA_SEARAD_NW STORM_SPEED STORM_DIR
1986017S12131 1986 11 SI WA HECTOR 1986-01-17 02:00:00 NR -11.8000 130.600 25 998 bom main 0 0 ______O_______ -1 -11.8000 130.600 20 25 998 1.00000 1004 16 237
1986017S12131 1986 11 SI WA HECTOR 1986-01-17 03:00:00 NR -11.9395 130.373 main 11 11 ______P_______ -1 -11.9395 130.373 20 25 998 14 236
1986017S12131 1986 11 SI WA HECTOR 1986-01-17 05:00:00 NR -12.2000 130.000 25 998 bom main 46 46 ______O_______ -1 -12.2000 130.000 20 25 998 1.50000 12 232
1986017S12131 1986 11 SI WA HECTOR 1986-01-17 06:00:00 NR -12.3129 129.889 main 60 55 ______P_______ -1 -12.3129 129.889 20 25 997 6 208
1986017S12131 1986 11 SI WA HECTOR 1986-01-17 09:00:00 NR -12.5776 129.792 main 55 46 ______P_______ -1 -12.5776 129.792 20 25 996 5 193
1986017S12131 1986 11 SI WA HECTOR 1986-01-17 11:00:00 NR -12.7000 129.800 25 996 bom main 46 39 ______O_______ -1 -12.7000 129.800 20 25 996 2.00000 4 0
1986017S12131 1986 11 SI WA HECTOR 1986-01-17 12:00:00 NR -12.7636 129.777 main 39 39 ______P_______ -1 -12.7636 129.777 20 25 994 3 207
1986017S12131 1986 11 SI WA HECTOR 1986-01-17 15:00:00 NR -12.8891 129.698 main 44 44 ______P_______ -1 -12.8891 129.698 20 28 991 3 232
1986017S12131 1986 11 SI WA HECTOR 1986-01-17 17:00:00 NR -12.9000 129.600 30 989 bom main 55 55 ______O_______ -1 -12.9000 129.600 20 30 989 2.50000 4 277
1986017S12131 1986 11 SI WA HECTOR 1986-01-17 18:00:00 NR -12.8681 129.515 main 66 66 ______P_______ -1 -12.8681 129.515 20 30 988 7 298
1986017S12131 1986 11 SI WA HECTOR 1986-01-17 21:00:00 NR -12.6956 129.198 main 103 103 ______P_______ -1 -12.6956 129.198 20 30 987 7 298
1986017S12131 1986 11 SI WA HECTOR 1986-01-17 23:00:00 NR -12.6000 129.000 30 986 bom main 127 127 ______O_______ -1 -12.6000 129.000 20 30 986 2.50000 6 292
1986017S12131 1986 11 SI WA HECTOR 1986-01-18 00:00:00 NR -12.5886 128.925 main 137 137 ______P_______ -1 -12.5886 128.925 20 30 986 4 263
1986017S12131 1986 11 SI WA HECTOR 1986-01-18 03:00:00 NR -12.6291 128.760 main 147 147 ______P_______ -1 -12.6291 128.760 20 33 986 3 243
1986017S12131 1986 11 SI WA HECTOR 1986-01-18 05:00:00 NR -12.7000 128.700 35 986 bom main 149 149 ______O_______ -1 -12.7000 128.700 30 35 986 3.00000 1002 3 215
1986017S12131 1986 11 SI WA HECTOR 1986-01-18 06:00:00 NR -12.7412 128.680 main 149 136 ______P_______ -1 -12.7412 128.680 30 35 985 3 185
1986017S12131 1986 11 SI WA HECTOR 1986-01-18 09:00:00 NR -12.8970 128.676 main 136 131 ______P_______ -1 -12.8970 128.676 30 35 984 3 176
1986017S12131 1986 11 SI WA HECTOR 1986-01-18 11:00:00 NR -13.0000 128.700 35 984 bom main 131 131 ______O_______ -1 -13.0000 128.700 30 35 984 3.00000 3 168
1986017S12131 1986 11 SI WA HECTOR 1986-01-18 12:00:00 NR -13.0417 128.714 main 131 117 ______P_______ -1 -13.0417 128.714 30 35 984 2 154
1986017S12131 1986 11 SI WA HECTOR 1986-01-18 15:00:00 NR -13.1467 128.769 main 117 113 ______P_______ -1 -13.1467 128.769 30 35 984 2 151
1986017S12131 1986 11 SI WA HECTOR 1986-01-18 17:00:00 NR -13.2000 128.800 35 984 bom main 113 113 ______O_______ -1 -13.2000 128.800 30 35 984 3.00000 2 149
1986017S12131 1986 11 SI WA HECTOR 1986-01-18 18:00:00 NR -13.2224 128.803 main 113 110 ______P_______ -1 -13.2224 128.803 30 35 984 1 0
1986017S12131 1986 11 SI WA HECTOR 1986-01-18 21:00:00 NR -13.2721 128.798 main 110 110 ______P_______ -1 -13.2721 128.798 30 35 984 1 191
1986017S12131 1986 11 SI WA HECTOR 1986-01-18 23:00:00 NR -13.3000 128.800 35 984 bom main 110 110 ______O_______ -1 -13.3000 128.800 30 35 984 3.00000 1 121
1986017S12131 1986 11 SI WA HECTOR 1986-01-19 00:00:00 NR -13.3009 128.827 main 110 99 ______P_______ -1 -13.3009 128.827 30 35 983 2 101
1986017S12131 1986 11 SI WA HECTOR 1986-01-19 03:00:00 NR -13.3192 128.909 main 99 98 ______P_______ -1 -13.3192 128.909 30 38 982 1 147
1986017S12131 1986 11 SI WA HECTOR 1986-01-19 05:00:00 NR -13.4000 128.900 40 982 bom main 98 97 ______O_______ -1 -13.4000 128.900 30 40 982 3.50000 1000 4 204
1986017S12131 1986 11 SI WA HECTOR 1986-01-19 06:00:00 NR -13.4851 128.843 main 107 101 ______P_______ -1 -13.4851 128.843 30 40 982 8 216
1986017S12131 1986 11 SI WA HECTOR 1986-01-19 09:00:00 NR -13.8421 128.576 main 102 70 ______P_______ -1 -13.8421 128.576 30 40 982 9 215
1986017S12131 1986 11 SI WA HECTOR 1986-01-19 11:00:00 NR -14.1000 128.400 40 983 bom main 70 46 ______O_______ -1 -14.1000 128.400 30 40 983 3.50000 11 223
1986017S12131 1986 11 SI WA HECTOR 1986-01-19 12:00:00 TS -14.2372 128.202 main 46 10 O_____P_____O_ jtwc_sh SH091986 -14.3000 127.900 30 -1 -14.2057 128.353 30 40 983 -14.3000 127.900 TC 30 8 224
1986017S12131 1986 11 SI WA HECTOR 1986-01-19 15:00:00 TS -14.4965 128.009 main 10 0 P_____P_____P_ SH091986 -14.4875 127.758 32 -1 -14.5055 128.260 30 40 984 -14.4875 127.758 TC 32 6 217
1986017S12131 1986 11 SI WA HECTOR 1986-01-19 17:00:00 TS -14.6549 127.873 40 985 bom main 0 0 P_____O_____P_ SH091986 -14.6249 127.655 34 0 -14.7000 128.200 30 40 985 3.50000 -14.6249 127.655 TC 34 6 221
1986017S12131 1986 11 SI WA HECTOR 1986-01-19 18:00:00 TS -14.7404 127.789 main 0 0 O_____P_____O_ jtwc_sh SH091986 -14.7000 127.600 35 0 -14.8213 128.168 30 39 985 -14.7000 127.600 TC 35 7 213
1986017S12131 1986 11 SI WA HECTOR 1986-01-19 21:00:00 TS -15.0262 127.624 main 0 0 P_____P_____P_ SH091986 -14.9500 127.415 37 0 -15.1785 128.042 30 37 985 -14.9500 127.415 TC 37 6 213
1986017S12131 1986 11 SI WA HECTOR 1986-01-20 00:00:00 TS -15.2769 127.431 35 985 bom main 0 0 O_____O___O_O_ jtwc_sh SH091986 -15.2000 127.200 40 0 -15.4000 127.800 30 35 985 292 1000 3 -15.4000 127.800 2 50 -15.2000 127.200 TC 40 6 227
1986017S12131 1986 11 SI WA HECTOR 1986-01-20 03:00:00 TS -15.4426 127.160 30 990 bom main 0 0 P_____O___P_P_ SH091986 -15.4000 126.965 42 0 -15.4000 127.400 20 30 990 292 3 -15.6987 127.463 2 48 -15.4000 126.965 TC 42 7 227
1986017S12131 1986 11 SI WA HECTOR 1986-01-20 06:00:00 TS -15.7842 126.864 30 992 bom main 0 0 O_____O___P_O_ jtwc_sh SH091986 -15.6000 126.700 45 0 -16.0000 127.000 20 30 992 286 3 -15.9877 127.121 2 46 -15.6000 126.700 TC 45 8 223
1986017S12131 1986 11 SI WA HECTOR 1986-01-20 09:00:00 TS -16.0645 126.567 30 992 bom main 0 0 P_____O___P_P_ SH091986 -15.8500 126.400 45 0 -16.3000 126.700 20 30 992 259 3 -16.2579 126.768 2 44 -15.8500 126.400 TC 45 8 229
1986017S12131 1986 11 SI WA HECTOR 1986-01-20 12:00:00 TS -16.3000 126.250 30 992 bom main 0 0 O_____O___O_O_ jtwc_sh SH091986 -16.1000 126.100 45 0 -16.5000 126.400 20 30 992 292 3 -16.5000 126.400 2 43 -16.1000 126.100 TC 45 8 233
1986017S12131 1986 11 SI WA HECTOR 1986-01-20 15:00:00 TS -16.5174 125.935 main 0 0 P_____P___P_P_ SH091986 -16.3149 125.842 45 0 -16.7333 126.039 20 30 992 222 -16.7064 126.017 2 43 -16.3149 125.842 TC 45 7 235
1986017S12131 1986 11 SI WA HECTOR 1986-01-20 16:00:00 TS -16.5817 125.828 30 992 bom main 0 0 P_____O___P_P_ SH091986 -16.3799 125.761 45 0 -16.8000 125.900 20 30 992 199 3 -16.7668 125.890 2 43 -16.3799 125.761 TC 45 7 241
1986017S12131 1986 11 SI WA HECTOR 1986-01-20 18:00:00 TS -16.6938 125.610 30 992 bom main 0 0 O_____O___P_O_ jtwc_sh SH091986 -16.5000 125.600 45 0 -16.9000 125.600 20 30 992 313 3 -16.8752 125.640 2 43 -16.5000 125.600 TC 45 7 243
1986017S12131 1986 11 SI WA HECTOR 1986-01-20 21:00:00 TS -16.8303 125.323 25 992 bom main 0 0 P_____O___P_P_ SH091986 -16.6575 125.350 42 0 -17.0000 125.300 20 25 992 292 3 -17.0064 125.293 2 43 -16.6575 125.350 TC 42 6 244
1986017S12131 1986 11 SI WA HECTOR 1986-01-21 00:00:00 TS -16.9500 125.050 25 991 bom main 0 0 O_____O___O_O_ jtwc_sh SH091986 -16.8000 125.100 40 0 -17.1000 125.000 20 25 991 350 3 -17.1000 125.000 2 44 -16.8000 125.100 TC 40 5 244
1986017S12131 1986 11 SI WA HECTOR 1986-01-21 03:00:00 TS -17.0709 124.815 25 991 bom main 0 0 P_____O___P_P_ SH091986 -16.9575 124.835 40 0 -17.2000 124.800 20 25 991 334 3 -17.1687 124.788 2 44 -16.9575 124.835 TC 40 5 245
1986017S12131 1986 11 SI WA HECTOR 1986-01-21 06:00:00 TS -17.1505 124.608 25 991 bom main 0 0 O_____O___P_O_ jtwc_sh SH091986 -17.1000 124.600 40 0 -17.2000 124.600 20 25 991 242 3 -17.2021 124.632 2 44 -17.1000 124.600 TC 40 4 247
1986017S12131 1986 11 SI WA HECTOR 1986-01-21 09:00:00 TS -17.2098 124.466 25 991 bom main 0 0 P_____O___P_P_ SH091986 -17.2150 124.427 40 0 -17.2000 124.500 20 25 991 286 3 -17.2094 124.510 2 44 -17.2150 124.427 TC 40 3 248
1986017S12131 1986 11 SI WA HECTOR 1986-01-21 12:00:00 TS -17.2500 124.350 25 991 bom main 0 0 O_____V___O_O_ jtwc_sh SH091986 -17.3000 124.300 40 0 -17.2000 124.400 20 25 991 304 3 -17.2000 124.400 2 44 -17.3000 124.300 TC 40 2 252
1986017S12131 1986 11 SI WA HECTOR 1986-01-21 15:00:00 TS -17.2798 124.242 main 0 0 P_____P___P_P_ SH091986 -17.3650 124.185 42 0 -17.2000 124.333 20 25 991 322 -17.1893 124.264 2 44 -17.3650 124.185 TC 42 2 256
1986017S12131 1986 11 SI WA HECTOR 1986-01-21 16:00:00 TS -17.2856 124.207 25 991 bom main 0 0 P_____O___P_P_ SH091986 -17.3800 124.153 43 0 -17.2000 124.300 20 25 991 328 3 -17.1824 124.220 2 44 -17.3800 124.153 TC 43 2 264
1986017S12131 1986 11 SI WA HECTOR 1986-01-21 18:00:00 TS -17.2912 124.134 25 991 bom main 0 0 O_____O___P_O_ jtwc_sh SH091986 -17.4000 124.100 45 0 -17.2000 124.200 20 25 991 421 3 -17.1650 124.135 2 44 -17.4000 124.100 TC 45 2 271
1986017S12131 1986 11 SI WA HECTOR 1986-01-21 21:00:00 TS -17.2833 124.028 25 991 bom main 0 0 P_____O___P_P_ SH091986 -17.4000 124.050 45 0 -17.2000 124.000 20 25 991 415 3 -17.1331 124.014 2 44 -17.4000 124.050 TC 45 2 283
1986017S12131 1986 11 SI WA HECTOR 1986-01-22 00:00:00 TS -17.2500 123.950 25 991 bom main 0 0 O_____O___O_O_ jtwc_sh SH091986 -17.4000 124.000 45 0 -17.1000 123.900 20 25 991 286 3 -17.1000 123.900 2 44 -17.4000 124.000 TC 45 2 277
1986017S12131 1986 11 SI WA HECTOR 1986-01-22 03:00:00 TS -17.2630 123.849 25 990 bom main 0 0 P_____O___P_P_ SH091986 -17.4425 123.908 45 0 -17.1000 123.800 20 25 990 388 3 -17.0669 123.781 2 46 -17.4425 123.908 TC 45 2 260
1986017S12131 1986 11 SI WA HECTOR 1986-01-22 06:00:00 TS -17.2838 123.743 25 988 bom main 0 0 O_____O___P_O_ jtwc_sh SH091986 -17.5000 123.800 45 0 -17.1000 123.700 20 25 988 307 3 -17.0350 123.670 2 48 -17.5000 123.800 TC 45 2 260
1986017S12131 1986 11 SI WA HECTOR 1986-01-22 09:00:00 TS -17.2989 123.640 25 988 bom main 0 0 P_____O___P_P_ SH091986 -17.5425 123.692 45 0 -17.1000 123.600 20 25 988 350 3 -17.0106 123.574 2 50 -17.5425 123.692 TC 45 2 265
1986017S12131 1986 11 SI WA HECTOR 1986-01-22 12:00:00 TS -17.3000 123.550 25 987 bom main 0 0 O_____V___O_O_ jtwc_sh SH091986 -17.6000 123.600 45 0 -17.0000 123.500 20 25 987 361 3 -17.0000 123.500 2 52 -17.6000 123.600 TC 45 2 263
1986017S12131 1986 11 SI WA HECTOR 1986-01-22 15:00:00 TS -17.3176 123.481 main 10 10 P_____P___P_P_ SH091986 -17.6850 123.535 45 0 -16.9141 123.433 20 25 987 373 -16.9862 123.421 2 50 -17.6850 123.535 TC 45 1 251
1986017S12131 1986 11 SI WA HECTOR 1986-01-22 16:00:00 TS -17.3312 123.460 25 987 bom main 10 0 P_____O___P_P_ SH091986 -17.7200 123.520 45 0 -16.9000 123.400 20 25 987 377 3 -16.9848 123.400 2 50 -17.7200 123.520 TC 45 2 226
1986017S12131 1986 11 SI WA HECTOR 1986-01-22 18:00:00 TS -17.3725 123.417 25 988 bom main 0 0 O_____O___P_O_ jtwc_sh SH091986 -17.8000 123.500 45 0 -16.9000 123.300 20 25 988 409 3 -16.9899 123.368 2 49 -17.8000 123.500 TC 45 2 199
1986017S12131 1986 11 SI WA HECTOR 1986-01-22 21:00:00 TS -17.4809 123.406 25 989 bom main 0 0 P_____O___P_P_ SH091986 -17.9500 123.485 45 0 -17.0000 123.300 20 25 989 404 3 -17.0236 123.356 2 47 -17.9500 123.485 TC 45 2 170
1986017S12131 1986 11 SI WA HECTOR 1986-01-23 00:00:00 TS -17.6000 123.450 25 990 bom main 0 0 O_____O___O_O_ jtwc_sh SH091986 -18.1000 123.500 45 0 -17.1000 123.400 20 25 990 469 3 -17.1000 123.400 2 46 -18.1000 123.500 TC 45 2 156
1986017S12131 1986 11 SI WA HECTOR 1986-01-23 03:00:00 TS -17.7029 123.514 25 991 bom main 0 0 P_____O___P_P_ SH091986 -18.2000 123.528 42 0 -17.2000 123.500 20 25 991 269 3 -17.2115 123.501 2 45 -18.2000 123.528 TC 42 3 144
1986017S12131 1986 11 SI WA HECTOR 1986-01-23 06:00:00 TS -17.8169 123.615 25 992 bom main 0 0 O_____O___P_O_ jtwc_sh SH091986 -18.3000 123.600 40 0 -17.3000 123.600 20 25 992 184 3 -17.3674 123.660 2 44 -18.3000 123.600 TC 40 4 138
1986017S12131 1986 11 SI WA HECTOR 1986-01-23 09:00:00 TS -17.9874 123.784 25 992 bom main 0 0 P_____O___P_P_ SH091986 -18.4425 123.735 37 0 -17.5000 123.800 20 25 992 205 3 -17.5646 123.864 2 43 -18.4425 123.735 TC 37 5 136
1986017S12131 1986 11 SI WA HECTOR 1986-01-23 12:00:00 TS -18.2000 124.000 25 993 bom main 0 0 O_____V___O_O_ jtwc_sh SH091986 -18.6000 123.900 35 0 -17.8000 124.100 20 25 993 197 3 -17.8000 124.100 2 42 -18.6000 123.900 TC 35 5 132
1986017S12131 1986 11 SI WA HECTOR 1986-01-23 15:00:00 TS -18.3483 124.206 main 0 0 P_____P___P_P_ SH091986 -18.7425 124.043 32 -1 -17.8387 124.381 20 25 993 190 -18.0696 124.357 2 41 -18.7425 124.043 TC 32 5 128
1986017S12131 1986 11 SI WA HECTOR 1986-01-23 16:00:00 TS -18.4125 124.283 25 994 bom main 0 0 P_____O___P_P_ SH091986 -18.7921 124.092 31 -1 -17.9000 124.500 20 25 994 188 3 -18.1657 124.446 2 41 -18.7921 124.092 TC 31 7 129
1986017S12131 1986 11 SI WA HECTOR 1986-01-23 18:00:00 TS -18.5612 124.484 20 994 bom main 0 0 O_____O___P_O_ jtwc_sh SH091986 -18.9000 124.200 30 -1 -18.2000 124.800 20 20 994 247 3 -18.3654 124.629 2 40 -18.9000 124.200 TC 30 7 130
1986017S12131 1986 11 SI WA HECTOR 1986-01-23 21:00:00 TS -18.8117 124.778 20 994 bom main 0 0 P_____O___P_P_ SH091986 -19.0901 124.390 27 -1 -18.6000 125.100 20 20 994 242 3 -18.6785 124.912 2 39 -19.0901 124.390 TC 27 7 138
1986017S12131 1986 11 SI WA HECTOR 1986-01-24 00:00:00 TS -19.1000 125.000 20 994 bom main 0 0 O_____O___O_O_ jtwc_sh SH091986 -19.3000 124.600 25 -1 -19.0000 125.200 20 20 994 280 3 -19.0000 125.200 2 39 -19.3000 124.600 TC 25 10 139
1986017S12131 1986 11 SI WA HECTOR 1986-01-24 03:00:00 NR -19.6000 125.500 20 995 bom main 0 0 ______O_______ SH091986 -1 -19.6000 125.500 20 20 995 350 3 2 TC 13 134
1986017S12131 1986 11 SI WA HECTOR 1986-01-24 06:00:00 NR -20.0000 126.000 20 995 bom main 0 ______O_______ -1 -20.0000 126.000 20 20 995 220 3 2 12 130

IBTrACS Databaseについて

本データベースは、米国NOAAが公開する1842年以降の世界の熱帯低気圧のベストトラックデータアーカイブInternational Best Track Archive for Climate Stewardship (IBTrACS)を、ウェブで閲覧しやすい形式に変換したものです。

最終更新日:2021-12-03